createdAt,value
2023-04-09T00:01:40.122Z,59.63
2023-04-09T00:05:52.845Z,60.06
2023-04-09T00:10:06.427Z,60.42
2023-04-09T00:14:18.713Z,60.83
2023-04-09T00:18:31.060Z,61.35
2023-04-09T00:22:43.598Z,61.70
2023-04-09T00:26:56.021Z,61.46
2023-04-09T00:31:08.567Z,61.70
2023-04-09T00:35:20.908Z,62.75
2023-04-09T00:39:33.329Z,63.86
2023-04-09T00:43:45.995Z,63.98
2023-04-09T00:47:58.669Z,62.46
2023-04-09T00:52:11.557Z,59.45
2023-04-09T00:56:25.248Z,58.64
2023-04-09T01:00:39.077Z,58.10
2023-04-09T01:04:51.697Z,58.95
2023-04-09T01:09:08.497Z,59.69
2023-04-09T01:14:10.694Z,59.07
2023-04-09T01:18:43.482Z,58.33
2023-04-09T01:23:07.944Z,59.64
2023-04-09T01:27:20.658Z,60.07
2023-04-09T01:31:44.572Z,60.19
2023-04-09T01:35:58.102Z,61.03
2023-04-09T01:40:11.057Z,61.02
2023-04-09T01:44:24.914Z,60.46
2023-04-09T01:48:40.744Z,61.11
2023-04-09T01:52:53.713Z,61.35
2023-04-09T01:57:06.267Z,62.11
2023-04-09T02:01:27.060Z,62.92
2023-04-09T02:05:44.905Z,63.34
2023-04-09T02:10:01.287Z,63.02
2023-04-09T02:14:13.982Z,62.15
2023-04-09T02:18:31.296Z,62.77
2023-04-09T02:22:43.740Z,62.55
2023-04-09T02:26:56.268Z,62.67
2023-04-09T02:31:08.590Z,61.54
2023-04-09T02:35:21.033Z,61.19
2023-04-09T02:39:33.574Z,61.40
2023-04-09T02:43:45.931Z,61.38
2023-04-09T02:47:58.356Z,62.14
2023-04-09T02:52:11.626Z,60.58
2023-04-09T02:56:24.298Z,61.63
2023-04-09T03:00:37.713Z,61.29
2023-04-09T03:04:50.126Z,61.84
2023-04-09T03:09:02.429Z,62.37
2023-04-09T03:13:16.246Z,63.14
2023-04-09T03:17:29.468Z,64.24
2023-04-09T03:21:41.915Z,64.50
2023-04-09T03:26:05.210Z,64.25
2023-04-09T03:30:24.797Z,63.35
2023-04-09T03:34:37.345Z,63.09
2023-04-09T03:38:51.302Z,63.90
2023-04-09T03:43:12.143Z,63.88
2023-04-09T03:47:33.187Z,63.93
2023-04-09T03:51:46.119Z,64.26
2023-04-09T03:55:59.422Z,63.54
2023-04-09T04:00:12.898Z,62.84
2023-04-09T04:04:54.816Z,61.46
2023-04-09T04:09:09.741Z,61.88
2023-04-09T04:13:30.408Z,61.87
2023-04-09T04:17:43.972Z,62.41
2023-04-09T04:22:04.951Z,63.85
2023-04-09T04:26:21.224Z,62.64
2023-04-09T04:30:33.741Z,62.24
2023-04-09T04:34:52.490Z,62.32
2023-04-09T04:39:11.060Z,64.37
2023-04-09T04:43:43.976Z,65.55
2023-04-09T04:48:04.263Z,65.59
2023-04-09T04:52:17.875Z,65.50
2023-04-09T04:56:35.509Z,65.55
2023-04-09T05:00:55.029Z,65.18
2023-04-09T05:05:07.890Z,64.98
2023-04-09T05:09:26.051Z,64.34
2023-04-09T05:13:45.090Z,63.47
2023-04-09T05:17:58.556Z,63.00
2023-04-09T05:22:11.752Z,62.88
2023-04-09T05:26:24.822Z,61.68
2023-04-09T05:30:40.919Z,60.60
2023-04-09T05:34:54.454Z,60.78
2023-04-09T05:39:07.288Z,59.09
2023-04-09T05:43:19.624Z,60.25
2023-04-09T05:47:33.094Z,59.21
2023-04-09T05:51:54.497Z,59.15
2023-04-09T05:56:15.992Z,57.48
2023-04-09T06:00:38.300Z,56.96
2023-04-09T06:04:51.049Z,57.54
2023-04-09T06:09:03.996Z,57.22
2023-04-09T06:13:16.463Z,55.46
2023-04-09T06:17:30.983Z,55.30
2023-04-09T06:21:43.613Z,54.54
2023-04-09T06:25:56.180Z,54.52
2023-04-09T06:30:09.292Z,53.97
2023-04-09T06:34:21.709Z,52.70
2023-04-09T06:38:33.988Z,52.48
2023-04-09T06:42:47.867Z,52.58
2023-04-09T06:47:10.163Z,53.25
2023-04-09T06:51:22.506Z,54.47
2023-04-09T06:55:34.914Z,55.57
2023-04-09T06:59:47.285Z,57.04
2023-04-09T07:03:59.756Z,58.16
2023-04-09T07:08:12.781Z,56.16
2023-04-09T07:12:34.731Z,56.42
2023-04-09T07:16:47.156Z,57.31
2023-04-09T07:20:59.531Z,57.00
2023-04-09T07:25:12.916Z,59.72
2023-04-09T07:29:25.341Z,62.12
2023-04-09T07:33:38.065Z,60.81
2023-04-09T07:37:50.593Z,59.53
2023-04-09T07:42:04.692Z,61.64
2023-04-09T07:46:22.068Z,59.67
2023-04-09T07:50:34.716Z,57.88
2023-04-09T07:54:47.153Z,56.25
2023-04-09T07:58:59.668Z,56.82
2023-04-09T08:03:12.160Z,56.16
2023-04-09T08:07:24.866Z,55.73
2023-04-09T08:11:37.765Z,54.50
2023-04-09T08:15:50.151Z,54.28
2023-04-09T08:20:02.533Z,53.08
2023-04-09T08:24:17.009Z,52.27
2023-04-09T08:28:29.576Z,51.46
2023-04-09T08:32:42.045Z,51.02
2023-04-09T08:36:54.563Z,51.00
2023-04-09T08:41:07.145Z,50.01
2023-04-09T08:45:19.596Z,50.27
2023-04-09T08:49:32.060Z,52.24
2023-04-09T08:53:47.932Z,51.54
2023-04-09T08:58:00.779Z,50.90
2023-04-09T09:02:13.380Z,55.62
2023-04-09T09:06:28.955Z,57.86
2023-04-09T09:10:44.135Z,56.88
2023-04-09T09:14:56.714Z,55.79
2023-04-09T09:19:11.550Z,56.53
2023-04-09T09:23:39.458Z,57.01
2023-04-09T09:27:52.931Z,56.85
2023-04-09T09:32:14.029Z,58.52
2023-04-09T09:36:34.572Z,58.82
2023-04-09T09:40:48.055Z,60.64
2023-04-09T09:45:02.530Z,63.92
2023-04-09T09:49:15.021Z,64.61
2023-04-09T09:53:29.032Z,64.83
2023-04-09T09:57:45.142Z,62.36
2023-04-09T10:02:02.869Z,65.50
2023-04-09T10:06:16.193Z,63.11
2023-04-09T10:10:29.040Z,62.70
2023-04-09T10:14:43.039Z,64.02
2023-04-09T10:18:59.214Z,61.69
2023-04-09T10:23:35.938Z,63.67
2023-04-09T10:28:00.655Z,64.49
2023-04-09T10:32:14.196Z,64.33
2023-04-09T10:36:28.187Z,65.40
2023-04-09T10:40:58.681Z,65.53
2023-04-09T10:45:12.347Z,65.19
2023-04-09T10:49:26.876Z,66.91
2023-04-09T10:53:39.297Z,67.20
2023-04-09T10:57:51.790Z,66.78
2023-04-09T11:02:10.063Z,67.36
2023-04-09T11:06:22.856Z,65.03
2023-04-09T11:10:36.051Z,65.44
2023-04-09T11:14:48.359Z,67.24
2023-04-09T11:19:00.836Z,68.19
2023-04-09T11:23:14.502Z,67.80
2023-04-09T11:27:27.000Z,69.40
2023-04-09T11:31:39.360Z,70.30
2023-04-09T11:35:51.929Z,71.20
2023-04-09T11:40:04.694Z,71.33
2023-04-09T11:44:17.244Z,71.30
2023-04-09T11:48:30.993Z,71.63
2023-04-09T11:52:45.036Z,70.69
2023-04-09T11:57:05.746Z,70.25
2023-04-09T12:01:18.316Z,69.31
2023-04-09T12:05:32.716Z,67.26
2023-04-09T12:09:49.365Z,67.40
2023-04-09T12:14:12.861Z,67.30
2023-04-09T12:18:25.262Z,68.60
2023-04-09T12:22:41.057Z,69.09
2023-04-09T12:26:53.415Z,68.71
2023-04-09T12:31:09.655Z,67.84
2023-04-09T12:35:23.397Z,66.79
2023-04-09T12:39:35.887Z,68.76
2023-04-09T12:43:49.309Z,67.92
2023-04-09T12:48:01.873Z,66.26
2023-04-09T12:52:14.301Z,65.89
2023-04-09T12:56:28.245Z,66.38
2023-04-09T13:00:42.361Z,65.81
2023-04-09T13:04:54.859Z,64.39
2023-04-09T13:09:07.285Z,63.13
2023-04-09T13:13:19.776Z,64.50
2023-04-09T13:17:32.197Z,62.41
2023-04-09T13:21:44.685Z,62.83
2023-04-09T13:25:57.146Z,63.74
2023-04-09T13:30:09.893Z,64.22
2023-04-09T13:34:22.221Z,61.10
2023-04-09T13:38:34.727Z,62.04
2023-04-09T13:42:47.259Z,59.78
2023-04-09T13:46:59.725Z,58.30
2023-04-09T13:51:12.315Z,57.05
2023-04-09T13:55:24.731Z,57.22
2023-04-09T13:59:42.004Z,58.54
2023-04-09T14:03:54.918Z,57.32
2023-04-09T14:08:07.689Z,56.85
2023-04-09T14:12:20.099Z,54.53
2023-04-09T14:16:32.693Z,55.95
2023-04-09T14:20:45.244Z,55.03
2023-04-09T14:24:57.731Z,52.21
2023-04-09T14:29:10.148Z,52.67
2023-04-09T14:33:22.586Z,53.21
2023-04-09T14:37:34.955Z,52.88
2023-04-09T14:41:47.584Z,55.28
2023-04-09T14:46:00.006Z,54.93
2023-04-09T14:50:13.122Z,54.11
2023-04-09T14:54:25.552Z,56.63
2023-04-09T14:58:38.379Z,58.22
2023-04-09T15:02:51.280Z,59.08
2023-04-09T15:07:03.807Z,59.88
2023-04-09T15:11:17.606Z,61.19
2023-04-09T15:15:30.168Z,61.55
2023-04-09T15:19:42.783Z,61.96
2023-04-09T15:23:56.673Z,62.38
2023-04-09T15:28:09.116Z,62.96
2023-04-09T15:32:22.009Z,63.45
2023-04-09T15:36:34.845Z,64.92
2023-04-09T15:40:47.757Z,64.90
2023-04-09T15:45:02.687Z,65.31
2023-04-09T15:49:15.346Z,65.55
2023-04-09T15:53:29.463Z,65.26
2023-04-09T15:57:46.929Z,65.35
2023-04-09T16:01:59.809Z,65.11
2023-04-09T16:06:14.968Z,65.47
2023-04-09T16:10:27.587Z,64.22
2023-04-09T16:14:40.676Z,65.45
2023-04-09T16:18:53.242Z,65.86
2023-04-09T16:23:05.751Z,66.72
2023-04-09T16:27:18.238Z,67.11
2023-04-09T16:31:30.855Z,67.57
2023-04-09T16:35:43.322Z,67.10
2023-04-09T16:39:57.290Z,67.55
2023-04-09T16:44:09.595Z,67.28
2023-04-09T16:48:22.100Z,67.60
2023-04-09T16:52:36.976Z,67.63
2023-04-09T16:56:51.154Z,69.51
2023-04-09T17:01:03.872Z,69.96
2023-04-09T17:05:18.123Z,71.04
2023-04-09T17:09:31.856Z,70.11
2023-04-09T17:13:44.420Z,71.44
2023-04-09T17:17:58.764Z,71.23
2023-04-09T17:22:11.559Z,71.80
2023-04-09T17:26:25.025Z,72.38
2023-04-09T17:30:37.571Z,70.99
2023-04-09T17:34:49.875Z,69.91
2023-04-09T17:39:02.666Z,69.65
2023-04-09T17:43:15.212Z,70.27
2023-04-09T17:47:27.562Z,70.12
2023-04-09T17:51:40.032Z,69.88
2023-04-09T17:55:52.485Z,69.85
2023-04-09T18:00:08.520Z,69.97
2023-04-09T18:04:32.053Z,69.74
2023-04-09T18:08:45.054Z,70.28
2023-04-09T18:12:59.716Z,70.41
2023-04-09T18:17:12.507Z,70.84
2023-04-09T18:21:26.016Z,71.05
2023-04-09T18:25:39.448Z,72.06
2023-04-09T18:29:52.558Z,72.74
2023-04-09T18:34:04.957Z,73.66
2023-04-09T18:38:18.936Z,74.70
2023-04-09T18:42:31.539Z,75.20
2023-04-09T18:46:44.083Z,73.73
2023-04-09T18:50:56.738Z,75.12
2023-04-09T18:55:09.740Z,74.26
2023-04-09T18:59:23.394Z,73.56
2023-04-09T19:03:36.132Z,73.23
2023-04-09T19:07:48.628Z,72.48
2023-04-09T19:12:02.143Z,73.72
2023-04-09T19:16:14.712Z,73.55
2023-04-09T19:20:27.413Z,72.88
2023-04-09T19:24:39.761Z,73.12
2023-04-09T19:28:52.958Z,73.60
2023-04-09T19:33:05.706Z,74.70
2023-04-09T19:37:19.365Z,74.88
2023-04-09T19:41:32.160Z,75.56
2023-04-09T19:45:44.688Z,75.85
2023-04-09T19:49:57.502Z,75.01
2023-04-09T19:54:11.060Z,75.06
2023-04-09T19:58:24.330Z,74.09
2023-04-09T20:02:38.046Z,74.05
2023-04-09T20:06:52.010Z,73.96
2023-04-09T20:11:04.961Z,74.65
2023-04-09T20:15:20.251Z,74.80
2023-04-09T20:19:32.840Z,74.09
2023-04-09T20:23:45.901Z,73.78
2023-04-09T20:27:58.348Z,73.83
2023-04-09T20:32:10.913Z,73.83
2023-04-09T20:36:23.513Z,74.13
2023-04-09T20:40:37.542Z,73.35
2023-04-09T20:44:50.099Z,73.69
2023-04-09T20:49:04.222Z,73.01
2023-04-09T20:53:18.233Z,72.98
2023-04-09T20:57:30.630Z,74.68
2023-04-09T21:01:43.246Z,73.99
2023-04-09T21:05:55.902Z,75.23
2023-04-09T21:10:09.053Z,73.73
2023-04-09T21:14:21.676Z,72.75
2023-04-09T21:18:34.091Z,73.93
2023-04-09T21:22:46.581Z,74.23
2023-04-09T21:26:59.867Z,74.42
2023-04-09T21:31:12.582Z,75.07
2023-04-09T21:35:25.218Z,75.18
2023-04-09T21:39:37.700Z,74.70
2023-04-09T21:43:50.126Z,75.45
2023-04-09T21:48:03.236Z,74.74
2023-04-09T21:52:15.781Z,75.99
2023-04-09T21:56:28.244Z,76.13
2023-04-09T22:00:40.982Z,75.71
2023-04-09T22:04:53.348Z,75.76
2023-04-09T22:09:09.110Z,75.36
2023-04-09T22:13:21.626Z,74.98
2023-04-09T22:17:34.087Z,75.98
2023-04-09T22:21:49.891Z,74.63
2023-04-09T22:26:03.829Z,73.89
2023-04-09T22:30:16.321Z,74.74
2023-04-09T22:34:28.729Z,74.35
2023-04-09T22:38:41.270Z,73.98
2023-04-09T22:42:53.708Z,73.23
2023-04-09T22:47:06.408Z,73.42
2023-04-09T22:51:18.815Z,73.09
2023-04-09T22:55:31.584Z,74.35
2023-04-09T22:59:44.078Z,76.34
2023-04-09T23:03:56.579Z,76.96
2023-04-09T23:08:09.958Z,75.63
2023-04-09T23:12:22.421Z,77.67
2023-04-09T23:16:34.772Z,76.51
2023-04-09T23:20:47.160Z,76.02
2023-04-09T23:24:59.559Z,77.60
2023-04-09T23:29:11.993Z,79.03
2023-04-09T23:33:24.486Z,79.35
2023-04-09T23:37:37.235Z,80.16
2023-04-09T23:41:49.669Z,80.69
2023-04-09T23:46:02.263Z,80.77
2023-04-09T23:50:14.545Z,81.59
2023-04-09T23:54:27.561Z,81.79
2023-04-09T23:58:40.044Z,80.47
